Ana Sayfa
METAR-TAF:

METAR-TAF

Havaalanları :

Larnaka Uluslararası Havalimanı

Larnaka, Kıbrıs

Enlem: 34-53N, Boylam: 033-38E, yükseklik: 2 m

Güncel hava durumu gözlemi

Rapor saat 04:30 UTC de 5 dakika önce yapıldı.
Rüzgar batı/kuzeybatıdan 5 kt
Sıcaklık 9°C
Nem 76%
Basınç 1021 hPa
Görüş mesafesi 10 km veya daha fazla
3000 ft yükseklikte az bulutlu

METAR: LCLK 130430Z 29005KT 9999 FEW030 09/05 Q1021 NOSIG

Saat: 06:35 (04:35 UTC)

Tahmin

Rapor saat 23:30 UTC de 5 saat ve 5 dakika önce yapıldı.
Ayın 13'si saat 00 UTC'den ayın 13'si saat 24 UTC'ye kadar geçerli Tahmin
Rüzgar batı/kuzeybatıdan 9 kt
Görüş mesafesi 10 km veya daha fazla
2500 ft yükseklikte az bulutlu
Dönüşüyor
ayın 13'si saat 07 UTC'den ayın 13'si saat 11 UTC'ye kadar
Rüzgar güneybatıdan 14 kt
Dönüşüyor
ayın 13'si saat 18 UTC'den ayın 13'si saat 21 UTC'ye kadar
Rüzgar kuzeybatıdan 7 kt

TAF: LCLK 122330Z 1300/1324 30009KT 9999 FEW025 BECMG 1307/1311 23014KT BECMG 1318/1321 32007KT

4.000'den fazla havaalanı için hava durumu gözlemleri ve tahminleri (METAR ve TAF raporları).

Kullanılabilir istasyonlar harita üzerinde sarı ve kırmızı noktalarla gösterilir.

İstasyonun adını görmek için fareyi noktanın üzerinde gezdirin.

Sonrasında hava gözlem ve tahminlerini görmek için tıklayın.

Haritayı değiştirmek için: yaklaştırmak için siyah artı işaretli yeşil düğmeye ve uzaklaştırmak için de eksi işaretli düğmeye hızla tıklayın; bitişik haritalar için yeşil okları kullanın.


METAR-TAF: